Grande Ghana — ICEZ — position and weather

sailwx.info

Track history (hours):
 
Tides and Currents Weather Stations Pressure Air Temp Water Temp Dewpoint Dewpoint Depression Visibility Wind Speed Wind Dir Waves Ship Positions

Grande Ghana

Last reported at 2018-Apr-24 20:08 UTC. Time now 2018-Apr-25 16:29 UTC.
Position N 49°48' W 003°33'.

Length 210 m; draft 9.1 m.

Type: Ship (hazmat cat A). MMSI: 247264700.

Date/timePositionNaut miles runAvg speedWind from/ knotsBaromVisibWave heightAir tempDewpointWater temp
2018-Apr-24 20:08N 49°48' W 003°33'519.1
2018-Apr-24 19:54N 49°50' W 003°27'719.1
2018-Apr-24 19:30N 49°54' W 003°17'1018.8
2018-Apr-24 18:59N 49°57' W 003°03'918.5
2018-Apr-24 18:30N 50°01' W 002°50'1018.2
2018-Apr-24 17:58N 50°04' W 002°35'1917.4
2018-Apr-24 16:54N 50°08' W 002°07'716.8
2018-Apr-24 16:30N 50°10' W 001°57'816.6
2018-Apr-24 16:00N 50°12' W 001°45'816.3
2018-Apr-24 15:31N 50°14' W 001°32'816.3
2018-Apr-24 15:00N 50°16' W 001°20'816.2
2018-Apr-24 14:30N 50°17' W 001°07'816.5
2018-Apr-24 14:01N 50°19' W 000°55'915.2
2018-Apr-24 13:25N 50°21' W 000°41'815.9
2018-Apr-24 12:53N 50°24' W 000°29'616.4
2018-Apr-24 12:30N 50°25' W 000°19'816.8
2018-Apr-24 12:00N 50°27' W 000°06'817.2
2018-Apr-24 11:30N 50°29' E 000°07'917.4
2018-Apr-24 11:00N 50°31' E 000°20'917.4
2018-Apr-24 10:30N 50°35' E 000°32'917.4
2018-Apr-24 10:00N 50°39' E 000°44'917.1
2018-Apr-24 09:30N 50°44' E 000°56'816.7
2018-Apr-24 09:00N 50°48' E 001°07'1315.9
2018-Apr-24 08:11N 50°57' E 001°22'415.4
2018-Apr-24 07:57N 51°00' E 001°26'715.0
2018-Apr-24 07:30N 51°05' E 001°33'714.2
2018-Apr-24 07:00N 51°10' E 001°40'714.6
2018-Apr-24 06:31N 51°16' E 001°46'815.5
2018-Apr-24 06:00N 51°22' E 001°55'713.6
2018-Apr-24 05:30N 51°24' E 002°05'816.0
2018-Apr-24 05:00N 51°20' E 002°17'816.2
2018-Apr-24 04:30N 51°23' E 002°29'916.2
2018-Apr-24 03:59N 51°22' E 002°43'611.2
2018-Apr-24 03:29N 51°22' E 002°52'917.6
2018-Apr-24 03:00N 51°24' E 003°05'918.2
2018-Apr-24 02:30N 51°24' E 003°20'917.7
2018-Apr-24 02:00N 51°25' E 003°34'4 8.7
2018-Apr-24 01:30N 51°26' E 003°41'816.3
2018-Apr-24 01:00N 51°21' E 003°50'816.6
2018-Apr-24 00:30N 51°26' E 004°00'713.1
2018-Apr-24 00:00N 51°23' E 004°10'510.5
2018-Apr-23 23:30N 51°20' E 004°16'3 6.8
2018-Apr-23 23:00N 51°17' E 004°15'0 0.0
2018-Apr-23 22:30N 51°17' E 004°15'0 0.6
2018-Apr-23 22:00N 51°16' E 004°15'1 1.8
2018-Apr-23 21:30N 51°17' E 004°13'0 0.0
2018-Apr-23 21:00N 51°17' E 004°13'0 0.0
2018-Apr-23 20:31N 51°17' E 004°13'0 0.0
2018-Apr-23 20:00N 51°17' E 004°13'0 0.0
2018-Apr-23 19:31N 51°17' E 004°13'0 0.0
2018-Apr-23 19:00N 51°17' E 004°13'0 0.0
2018-Apr-23 18:30N 51°17' E 004°13'0 0.0
2018-Apr-23 18:01N 51°17' E 004°13'0 0.0
2018-Apr-23 17:31N 51°17' E 004°13'0 0.0
2018-Apr-23 17:00N 51°17' E 004°13'0 0.0
2018-Apr-23 16:30N 51°17' E 004°13'0 0.0
2018-Apr-23 16:01N 51°17' E 004°13'0 0.0
2018-Apr-23 15:31N 51°17' E 004°13'0 0.0
2018-Apr-23 15:01N 51°17' E 004°13'0 0.0
2018-Apr-23 14:30N 51°17' E 004°13'0 0.0
2018-Apr-23 14:01N 51°17' E 004°13'0 0.0
2018-Apr-23 13:30N 51°17' E 004°13'0 0.0
2018-Apr-23 13:00N 51°17' E 004°13'0 0.0
2018-Apr-23 12:31N 51°17' E 004°13'0 0.0
2018-Apr-23 12:01N 51°17' E 004°13'0 0.0
2018-Apr-23 11:31N 51°17' E 004°13'0 0.0
2018-Apr-23 11:00N 51°17' E 004°13'0 0.0
2018-Apr-23 10:30N 51°17' E 004°13'0 0.0
2018-Apr-23 10:00N 51°17' E 004°13'0 0.0
2018-Apr-23 09:31N 51°17' E 004°13'0 0.0
2018-Apr-23 09:00N 51°17' E 004°13'0 0.0
2018-Apr-23 08:30N 51°17' E 004°13'0 0.0
2018-Apr-23 08:01N 51°17' E 004°13'0 0.0
2018-Apr-23 07:30N 51°17' E 004°13'0 0.0
2018-Apr-23 07:00N 51°17' E 004°13'0 0.0
2018-Apr-23 06:30N 51°17' E 004°13'0 0.0
2018-Apr-23 06:00N 51°17' E 004°13'0 0.0
2018-Apr-23 05:30N 51°17' E 004°13'0 0.0
2018-Apr-23 05:00N 51°17' E 004°13'0 0.0
2018-Apr-23 04:30N 51°17' E 004°13'0 0.0
2018-Apr-23 04:00N 51°17' E 004°13'0 0.0
2018-Apr-23 03:31N 51°17' E 004°13'0 0.0
2018-Apr-23 03:00N 51°17' E 004°13'0 0.0
2018-Apr-23 02:31N 51°17' E 004°13'0 0.0
2018-Apr-23 02:00N 51°17' E 004°13'0 0.0
2018-Apr-23 01:30N 51°17' E 004°13'0 0.0
2018-Apr-23 01:01N 51°17' E 004°13'0 0.0
2018-Apr-23 00:30N 51°17' E 004°13'0 0.0
2018-Apr-23 00:01N 51°17' E 004°13'0 0.0
2018-Apr-22 23:30N 51°17' E 004°13'0 0.0
2018-Apr-22 23:01N 51°17' E 004°13'0 0.0
2018-Apr-22 22:31N 51°17' E 004°13'0 0.0
2018-Apr-22 22:01N 51°17' E 004°13'0 0.0
2018-Apr-22 21:31N 51°17' E 004°13'0 0.0
2018-Apr-22 21:01N 51°17' E 004°13'0 0.0
2018-Apr-22 20:31N 51°17' E 004°13'0 0.0
2018-Apr-22 20:00N 51°17' E 004°13'0 0.0
2018-Apr-22 19:31N 51°17' E 004°13'0 0.0
2018-Apr-22 19:01N 51°17' E 004°13'0 0.0
2018-Apr-22 18:31N 51°17' E 004°13'0 0.0
2018-Apr-22 18:01N 51°17' E 004°13'0 0.0
2018-Apr-22 17:31N 51°17' E 004°13'0 0.0
2018-Apr-22 17:00N 51°17' E 004°13'0 0.0
2018-Apr-22 16:30N 51°17' E 004°13'0 0.0
2018-Apr-22 16:00N 51°17' E 004°13'0 0.0
2018-Apr-22 15:30N 51°17' E 004°13'0 0.0
2018-Apr-22 15:00N 51°17' E 004°13'0 0.0
2018-Apr-22 14:30N 51°17' E 004°13'0 0.0
2018-Apr-22 14:00N 51°17' E 004°13'0 0.0
2018-Apr-22 13:30N 51°17' E 004°13'0 0.0
2018-Apr-22 13:00N 51°17' E 004°13'0 0.0
2018-Apr-22 12:30N 51°17' E 004°13'0 0.0
2018-Apr-22 12:00N 51°17' E 004°13'0 0.0
2018-Apr-22 11:30N 51°17' E 004°13'0 0.0
2018-Apr-22 11:00N 51°17' E 004°13'0 0.0
2018-Apr-22 10:30N 51°17' E 004°13'0 0.0
2018-Apr-22 10:00N 51°17' E 004°13'0 0.0
2018-Apr-22 09:30N 51°17' E 004°13'0 0.0
2018-Apr-22 09:00N 51°17' E 004°13'0 0.0
2018-Apr-22 08:30N 51°17' E 004°13'0 0.0
2018-Apr-22 08:00N 51°17' E 004°13'0 0.0
2018-Apr-22 07:30N 51°17' E 004°13'0 0.0
2018-Apr-22 07:00N 51°17' E 004°13'0 0.0
2018-Apr-22 06:30N 51°17' E 004°13'0 0.0
2018-Apr-22 06:00N 51°17' E 004°13'0 0.0
2018-Apr-22 05:30N 51°17' E 004°13'0 0.0
2018-Apr-22 05:00N 51°17' E 004°13'0 0.0
2018-Apr-22 04:30N 51°17' E 004°13'0 0.0
2018-Apr-22 04:00N 51°17' E 004°13'0 0.0
2018-Apr-22 03:30N 51°17' E 004°13'0 0.0
2018-Apr-22 03:00N 51°17' E 004°13'0 0.0
2018-Apr-22 02:30N 51°17' E 004°13'0 0.0
2018-Apr-22 02:00N 51°17' E 004°13'0 0.0
2018-Apr-22 01:30N 51°17' E 004°13'0 0.0
2018-Apr-22 01:00N 51°17' E 004°13'0 0.0
2018-Apr-22 00:30N 51°17' E 004°13'0 0.0
2018-Apr-22 00:00N 51°17' E 004°13'0 0.0
2018-Apr-21 23:30N 51°17' E 004°13'0 0.0
2018-Apr-21 23:00N 51°17' E 004°13'0 0.0
2018-Apr-21 22:30N 51°17' E 004°13'0 0.0
2018-Apr-21 22:00N 51°17' E 004°13'0 0.0
2018-Apr-21 21:30N 51°17' E 004°13'0 0.0
2018-Apr-21 21:00N 51°17' E 004°13'0 0.0
2018-Apr-21 20:31N 51°17' E 004°13'0 0.0
2018-Apr-21 20:00N 51°17' E 004°13'0 0.0
2018-Apr-21 19:30N 51°17' E 004°13'0 0.0
2018-Apr-21 19:01N 51°17' E 004°13'0 0.0
2018-Apr-21 18:30N 51°17' E 004°13'0 0.0
2018-Apr-21 18:01N 51°17' E 004°13'0 0.0
2018-Apr-21 17:31N 51°17' E 004°13'0 0.0
2018-Apr-21 17:01N 51°17' E 004°13'0 0.0
2018-Apr-21 16:31N 51°17' E 004°13'0 0.0
2018-Apr-21 16:00N 51°17' E 004°13'0 0.0
2018-Apr-21 15:30N 51°17' E 004°13'0 0.0
2018-Apr-21 15:01N 51°17' E 004°13'0 0.0
2018-Apr-21 14:31N 51°17' E 004°13'0 0.0
2018-Apr-21 14:01N 51°17' E 004°13'0 0.0
2018-Apr-21 13:30N 51°17' E 004°13'0 0.0
2018-Apr-21 13:00N 51°17' E 004°13'0 0.0
2018-Apr-21 12:31N 51°17' E 004°13'0 0.0
2018-Apr-21 12:01N 51°17' E 004°13'0 0.0
2018-Apr-21 11:30N 51°17' E 004°13'0 0.0
2018-Apr-21 11:01N 51°17' E 004°13'0 0.0
2018-Apr-21 10:31N 51°17' E 004°13'0 0.0
2018-Apr-21 10:01N 51°17' E 004°13'0 0.0
2018-Apr-21 09:31N 51°17' E 004°13'0 0.0
2018-Apr-21 09:01N 51°17' E 004°13'0 0.0
2018-Apr-21 08:30N 51°17' E 004°13'0 0.0
2018-Apr-21 08:00N 51°17' E 004°13'0 0.0
2018-Apr-21 07:31N 51°17' E 004°13'0 0.0
2018-Apr-21 07:01N 51°17' E 004°13'0 0.0
2018-Apr-21 06:30N 51°17' E 004°13'0 0.0
2018-Apr-21 06:01N 51°17' E 004°13'0 0.0
2018-Apr-21 05:30N 51°17' E 004°13'0 0.0
2018-Apr-21 05:01N 51°17' E 004°13'0 0.0
2018-Apr-21 04:31N 51°17' E 004°13'0 0.0
2018-Apr-21 04:00N 51°17' E 004°13'0 0.0
2018-Apr-21 03:31N 51°17' E 004°13'0 0.0
2018-Apr-21 03:01N 51°17' E 004°13'0 0.0
2018-Apr-21 02:30N 51°17' E 004°13'0 0.0
2018-Apr-21 02:01N 51°17' E 004°13'0 0.0
2018-Apr-21 01:31N 51°17' E 004°13'0 0.0
2018-Apr-21 01:01N 51°17' E 004°13'0 0.0
2018-Apr-21 00:31N 51°17' E 004°13'0 0.0
2018-Apr-21 00:01N 51°17' E 004°13'0 0.0
2018-Apr-20 23:31N 51°17' E 004°13'0 0.0
2018-Apr-20 23:01N 51°17' E 004°13'0 0.0
2018-Apr-20 22:31N 51°17' E 004°13'0 0.0
2018-Apr-20 22:00N 51°17' E 004°13'0 0.0
2018-Apr-20 21:31N 51°17' E 004°13'0 0.0
2018-Apr-20 21:01N 51°17' E 004°13'0 0.0
2018-Apr-20 20:30N 51°17' E 004°13'0 0.0
2018-Apr-20 20:01N 51°17' E 004°13'0 0.0
2018-Apr-20 19:31N 51°17' E 004°13'0 0.0
2018-Apr-20 19:01N 51°17' E 004°13'0 0.0
2018-Apr-20 18:30N 51°17' E 004°13'0 0.0
2018-Apr-20 18:01N 51°17' E 004°13'0 0.0
2018-Apr-20 17:30N 51°17' E 004°13'0 0.0
2018-Apr-20 17:01N 51°17' E 004°13'0 0.0
2018-Apr-20 16:30N 51°17' E 004°13'0 0.0
2018-Apr-20 16:01N 51°17' E 004°13'0 0.0
2018-Apr-20 15:31N 51°17' E 004°13'0 0.0
2018-Apr-20 15:01N 51°17' E 004°13'0 0.0
2018-Apr-20 14:30N 51°17' E 004°13'0 0.0
2018-Apr-20 14:00N 51°17' E 004°13'0 0.0
2018-Apr-20 13:30N 51°17' E 004°13'0 0.0
2018-Apr-20 13:00N 51°17' E 004°13'0 0.0
2018-Apr-20 12:30N 51°17' E 004°13'0 0.0
2018-Apr-20 12:01N 51°17' E 004°13'0 0.0
2018-Apr-20 11:31N 51°17' E 004°13'0 0.0
2018-Apr-20 11:00N 51°17' E 004°13'0 0.0
2018-Apr-20 10:30N 51°17' E 004°13'0 0.0
2018-Apr-20 10:01N 51°17' E 004°13'0 0.0
2018-Apr-20 09:31N 51°17' E 004°13'0 0.0
2018-Apr-20 09:01N 51°17' E 004°13'0 0.0
2018-Apr-20 08:31N 51°17' E 004°13'0 0.0
2018-Apr-20 08:01N 51°17' E 004°13'0 0.0
2018-Apr-20 07:31N 51°17' E 004°13'0 0.0
2018-Apr-20 07:01N 51°17' E 004°13'0 0.0
2018-Apr-20 06:31N 51°17' E 004°13'0 0.0
2018-Apr-20 06:01N 51°17' E 004°13'0 0.0
2018-Apr-20 05:30N 51°17' E 004°13'0 0.0
2018-Apr-20 05:00N 51°17' E 004°13'0 0.0
2018-Apr-20 04:30N 51°17' E 004°13'0 0.0
2018-Apr-20 04:01N 51°17' E 004°13'0 0.0
2018-Apr-20 03:30N 51°17' E 004°13'0 0.0
2018-Apr-20 03:01N 51°17' E 004°13'0 0.0
2018-Apr-20 02:30N 51°17' E 004°13'0 0.0
2018-Apr-20 02:00N 51°17' E 004°13'0 0.0
2018-Apr-20 01:30N 51°17' E 004°13'0 0.0
2018-Apr-20 01:01N 51°17' E 004°13'0 0.0
2018-Apr-20 00:30N 51°17' E 004°13'0 0.0
2018-Apr-20 00:00N 51°17' E 004°13'0 0.0
2018-Apr-19 23:30N 51°17' E 004°13'0 0.0
2018-Apr-19 23:00N 51°17' E 004°13'0 0.0
2018-Apr-19 22:30N 51°17' E 004°13'0 0.0
2018-Apr-19 22:00N 51°17' E 004°13'0 0.0
2018-Apr-19 21:30N 51°17' E 004°13'0 0.0
2018-Apr-19 21:00N 51°17' E 004°13'0 0.0
2018-Apr-19 20:30N 51°17' E 004°13'0 0.0
2018-Apr-19 20:00N 51°17' E 004°13'0 0.0
2018-Apr-19 19:30N 51°17' E 004°13'0 0.0
2018-Apr-19 19:00N 51°17' E 004°13'0 0.0
2018-Apr-19 18:30N 51°17' E 004°13'0 0.0
2018-Apr-19 18:00N 51°17' E 004°13'0 0.0
2018-Apr-19 17:30N 51°17' E 004°13'0 0.0
2018-Apr-19 17:00N 51°17' E 004°13'0 0.0
2018-Apr-19 16:30N 51°17' E 004°13'0 0.0
2018-Apr-19 16:00N 51°17' E 004°13'0 0.0
2018-Apr-19 15:31N 51°17' E 004°13'0 0.0
2018-Apr-19 15:00N 51°17' E 004°13'0 0.0
2018-Apr-19 14:30N 51°17' E 004°13'0 0.0
2018-Apr-19 14:00N 51°17' E 004°13'0 0.0
2018-Apr-19 13:30N 51°17' E 004°13'0 0.0
2018-Apr-19 13:00N 51°17' E 004°13'0 0.0
2018-Apr-19 12:30N 51°17' E 004°13'0 0.0
2018-Apr-19 12:00N 51°17' E 004°13'0 0.0
2018-Apr-19 11:30N 51°17' E 004°13'0 0.0
2018-Apr-19 11:00N 51°17' E 004°13'0 0.0
2018-Apr-19 10:30N 51°17' E 004°13'0 0.0
2018-Apr-19 10:00N 51°17' E 004°13'0 0.0
2018-Apr-19 09:30N 51°17' E 004°13'0 0.0
2018-Apr-19 09:01N 51°17' E 004°13'0 0.0
2018-Apr-19 08:30N 51°17' E 004°13'0 0.0
2018-Apr-19 08:00N 51°17' E 004°13'0 0.0
2018-Apr-19 07:30N 51°17' E 004°13'0 0.0
2018-Apr-19 07:00N 51°17' E 004°13'0 0.0
2018-Apr-19 06:30N 51°17' E 004°13'0 0.0
2018-Apr-19 06:00N 51°17' E 004°13'0 0.0
2018-Apr-19 05:30N 51°17' E 004°13'0 0.0
2018-Apr-19 05:00N 51°17' E 004°13'0 0.0
2018-Apr-19 04:30N 51°17' E 004°13'0 0.0
2018-Apr-19 04:00N 51°17' E 004°13'0 0.0
2018-Apr-19 03:30N 51°17' E 004°13'0 0.0
2018-Apr-19 03:00N 51°17' E 004°13'0 0.0
2018-Apr-19 02:30N 51°17' E 004°13'0 0.0
2018-Apr-19 02:00N 51°17' E 004°13'0 0.0
2018-Apr-19 01:30N 51°17' E 004°13'0 0.0
2018-Apr-19 01:00N 51°17' E 004°13'0 0.0
2018-Apr-19 00:30N 51°17' E 004°13'0 0.0
2018-Apr-19 00:00N 51°17' E 004°13'0 0.0
2018-Apr-18 23:30N 51°17' E 004°13'0 0.0
2018-Apr-18 23:00N 51°17' E 004°13'0 0.0
2018-Apr-18 22:30N 51°17' E 004°13'0 0.0
2018-Apr-18 22:00N 51°17' E 004°13'0 0.0
2018-Apr-18 21:30N 51°17' E 004°13'0 0.0
2018-Apr-18 21:00N 51°17' E 004°13'0 0.0
2018-Apr-18 20:30N 51°17' E 004°13'0 0.0
2018-Apr-18 20:00N 51°17' E 004°13'0 0.0
2018-Apr-18 19:30N 51°17' E 004°13'0 0.0
2018-Apr-18 19:00N 51°17' E 004°13'0 0.0
2018-Apr-18 18:30N 51°17' E 004°13'0 0.0
2018-Apr-18 18:00N 51°17' E 004°13'0 0.0
2018-Apr-18 17:30N 51°17' E 004°13'0 0.0
2018-Apr-18 17:00N 51°17' E 004°13'0 0.0
2018-Apr-18 16:30N 51°17' E 004°13'0 0.0
2018-Apr-18 16:00N 51°17' E 004°13'0 0.0
2018-Apr-18 15:30N 51°17' E 004°13'0 0.0
2018-Apr-18 15:00N 51°17' E 004°13'0 0.0
2018-Apr-18 14:30N 51°17' E 004°13'0 0.0
2018-Apr-18 14:00N 51°17' E 004°13'0 0.0
2018-Apr-18 13:30N 51°17' E 004°13'0 0.0
2018-Apr-18 13:00N 51°17' E 004°13'1 2.2
2018-Apr-18 12:30N 51°17' E 004°15'0 0.0
2018-Apr-18 12:00N 51°17' E 004°15'0 0.8
2018-Apr-18 11:30N 51°17' E 004°15'3 6.5
2018-Apr-18 11:00N 51°20' E 004°16'510.1
2018-Apr-18 10:30N 51°23' E 004°09'613.1
2018-Apr-18 10:00N 51°26' E 004°00'713.7
2018-Apr-18 09:29N 51°21' E 003°52'613.1
2018-Apr-18 09:01N 51°23' E 003°43'5 9.6
2018-Apr-18 08:31N 51°26' E 003°36'5 9.2
2018-Apr-18 08:00N 51°25' E 003°29'715.0
2018-Apr-18 07:31N 51°24' E 003°17'815.0
2018-Apr-18 07:01N 51°24' E 003°05'815.6
2018-Apr-18 06:30N 51°22' E 002°53'712.9
2018-Apr-18 06:00N 51°22' E 002°42'611.3
2018-Apr-18 05:30N 51°22' E 002°34'612.4
2018-Apr-18 04:59N 51°20' E 002°24'612.5
2018-Apr-18 04:30N 51°17' E 002°15'612.5
2018-Apr-18 04:01N 51°14' E 002°07'612.5
2018-Apr-18 03:31N 51°11' E 001°58'612.3
2018-Apr-18 03:01N 51°08' E 001°50'713.1
2018-Apr-18 02:31N 51°03' E 001°42'1019.0
2018-Apr-18 02:00N 50°56' E 001°32'1019.4
2018-Apr-18 01:30N 50°48' E 001°24'917.9
2018-Apr-18 01:01N 50°40' E 001°18'917.2
2018-Apr-18 00:30N 50°35' E 001°07'816.6
2018-Apr-18 00:00N 50°30' E 000°56'816.8
2018-Apr-17 23:30N 50°28' E 000°43'1117.5
2018-Apr-17 22:51N 50°24' E 000°26'618.0
2018-Apr-17 22:30N 50°22' E 000°17'918.4
2018-Apr-17 22:01N 50°20' E 000°03'1118.9
2018-Apr-17 21:26N 50°17' W 000°13'1520.0
2018-Apr-17 20:42N 50°13' W 000°35'520.2
2018-Apr-17 20:28N 50°12' W 000°42'1220.8
2018-Apr-17 19:53N 50°09' W 001°01'820.5
2018-Apr-17 19:31N 50°07' W 001°12'1121.2
2018-Apr-17 19:00N 50°05' W 001°29'1020.5
2018-Apr-17 18:30N 50°01' W 001°44'1019.5
2018-Apr-17 18:01N 49°59' W 001°58'918.5
2018-Apr-17 17:30N 49°56' W 002°12'1717.6
2018-Apr-17 16:34N 49°52' W 002°37'617.3
2018-Apr-17 16:13N 49°50' W 002°46'417.5
2018-Apr-17 16:00N 49°49' W 002°52'  
Track history (hours):
 
Tides and Currents Weather Stations Pressure Air Temp Water Temp Dewpoint Dewpoint Depression Visibility Wind Speed Wind Dir Waves Ship Positions

Grande Ghana

Last reported at 2018-Apr-24 20:08 UTC. Time now 2018-Apr-25 16:29 UTC.
Position N 49°48' W 003°33'.

Length 210 m; draft 9.1 m.

Type: Ship (hazmat cat A). MMSI: 247264700.

Date/timePositionNaut miles runAvg speedWind from/ knotsBaromVisibWave heightAir tempDewpointWater temp
2018-Apr-24 20:08N 49°48' W 003°33'519.1
2018-Apr-24 19:54N 49°50' W 003°27'719.1
2018-Apr-24 19:30N 49°54' W 003°17'1018.8
2018-Apr-24 18:59N 49°57' W 003°03'918.5
2018-Apr-24 18:30N 50°01' W 002°50'1018.2
2018-Apr-24 17:58N 50°04' W 002°35'1917.4
2018-Apr-24 16:54N 50°08' W 002°07'716.8
2018-Apr-24 16:30N 50°10' W 001°57'816.6
2018-Apr-24 16:00N 50°12' W 001°45'816.3
2018-Apr-24 15:31N 50°14' W 001°32'816.3
2018-Apr-24 15:00N 50°16' W 001°20'816.2
2018-Apr-24 14:30N 50°17' W 001°07'816.5
2018-Apr-24 14:01N 50°19' W 000°55'915.2
2018-Apr-24 13:25N 50°21' W 000°41'815.9
2018-Apr-24 12:53N 50°24' W 000°29'616.4
2018-Apr-24 12:30N 50°25' W 000°19'816.8
2018-Apr-24 12:00N 50°27' W 000°06'817.2
2018-Apr-24 11:30N 50°29' E 000°07'917.4
2018-Apr-24 11:00N 50°31' E 000°20'917.4
2018-Apr-24 10:30N 50°35' E 000°32'917.4
2018-Apr-24 10:00N 50°39' E 000°44'917.1
2018-Apr-24 09:30N 50°44' E 000°56'816.7
2018-Apr-24 09:00N 50°48' E 001°07'1315.9
2018-Apr-24 08:11N 50°57' E 001°22'415.4
2018-Apr-24 07:57N 51°00' E 001°26'715.0
2018-Apr-24 07:30N 51°05' E 001°33'714.2
2018-Apr-24 07:00N 51°10' E 001°40'714.6
2018-Apr-24 06:31N 51°16' E 001°46'815.5
2018-Apr-24 06:00N 51°22' E 001°55'713.6
2018-Apr-24 05:30N 51°24' E 002°05'816.0
2018-Apr-24 05:00N 51°20' E 002°17'816.2
2018-Apr-24 04:30N 51°23' E 002°29'916.2
2018-Apr-24 03:59N 51°22' E 002°43'611.2
2018-Apr-24 03:29N 51°22' E 002°52'917.6
2018-Apr-24 03:00N 51°24' E 003°05'918.2
2018-Apr-24 02:30N 51°24' E 003°20'917.7
2018-Apr-24 02:00N 51°25' E 003°34'4 8.7
2018-Apr-24 01:30N 51°26' E 003°41'816.3
2018-Apr-24 01:00N 51°21' E 003°50'816.6
2018-Apr-24 00:30N 51°26' E 004°00'713.1
2018-Apr-24 00:00N 51°23' E 004°10'510.5
2018-Apr-23 23:30N 51°20' E 004°16'3 6.8
2018-Apr-23 23:00N 51°17' E 004°15'0 0.0
2018-Apr-23 22:30N 51°17' E 004°15'0 0.6
2018-Apr-23 22:00N 51°16' E 004°15'1 1.8
2018-Apr-23 21:30N 51°17' E 004°13'0 0.0
2018-Apr-23 21:00N 51°17' E 004°13'0 0.0
2018-Apr-23 20:31N 51°17' E 004°13'0 0.0
2018-Apr-23 20:00N 51°17' E 004°13'0 0.0
2018-Apr-23 19:31N 51°17' E 004°13'0 0.0
2018-Apr-23 19:00N 51°17' E 004°13'0 0.0
2018-Apr-23 18:30N 51°17' E 004°13'0 0.0
2018-Apr-23 18:01N 51°17' E 004°13'0 0.0
2018-Apr-23 17:31N 51°17' E 004°13'0 0.0
2018-Apr-23 17:00N 51°17' E 004°13'0 0.0
2018-Apr-23 16:30N 51°17' E 004°13'0 0.0
2018-Apr-23 16:01N 51°17' E 004°13'0 0.0
2018-Apr-23 15:31N 51°17' E 004°13'0 0.0
2018-Apr-23 15:01N 51°17' E 004°13'0 0.0
2018-Apr-23 14:30N 51°17' E 004°13'0 0.0
2018-Apr-23 14:01N 51°17' E 004°13'0 0.0
2018-Apr-23 13:30N 51°17' E 004°13'0 0.0
2018-Apr-23 13:00N 51°17' E 004°13'0 0.0
2018-Apr-23 12:31N 51°17' E 004°13'0 0.0
2018-Apr-23 12:01N 51°17' E 004°13'0 0.0
2018-Apr-23 11:31N 51°17' E 004°13'0 0.0
2018-Apr-23 11:00N 51°17' E 004°13'0 0.0
2018-Apr-23 10:30N 51°17' E 004°13'0 0.0
2018-Apr-23 10:00N 51°17' E 004°13'0 0.0
2018-Apr-23 09:31N 51°17' E 004°13'0 0.0
2018-Apr-23 09:00N 51°17' E 004°13'0 0.0
2018-Apr-23 08:30N 51°17' E 004°13'0 0.0
2018-Apr-23 08:01N 51°17' E 004°13'0 0.0
2018-Apr-23 07:30N 51°17' E 004°13'0 0.0
2018-Apr-23 07:00N 51°17' E 004°13'0 0.0
2018-Apr-23 06:30N 51°17' E 004°13'0 0.0
2018-Apr-23 06:00N 51°17' E 004°13'0 0.0
2018-Apr-23 05:30N 51°17' E 004°13'0 0.0
2018-Apr-23 05:00N 51°17' E 004°13'0 0.0
2018-Apr-23 04:30N 51°17' E 004°13'0 0.0
2018-Apr-23 04:00N 51°17' E 004°13'0 0.0
2018-Apr-23 03:31N 51°17' E 004°13'0 0.0
2018-Apr-23 03:00N 51°17' E 004°13'0 0.0
2018-Apr-23 02:31N 51°17' E 004°13'0 0.0
2018-Apr-23 02:00N 51°17' E 004°13'0 0.0
2018-Apr-23 01:30N 51°17' E 004°13'0 0.0
2018-Apr-23 01:01N 51°17' E 004°13'0 0.0
2018-Apr-23 00:30N 51°17' E 004°13'0 0.0
2018-Apr-23 00:01N 51°17' E 004°13'0 0.0
2018-Apr-22 23:30N 51°17' E 004°13'0 0.0
2018-Apr-22 23:01N 51°17' E 004°13'0 0.0
2018-Apr-22 22:31N 51°17' E 004°13'0 0.0
2018-Apr-22 22:01N 51°17' E 004°13'0 0.0
2018-Apr-22 21:31N 51°17' E 004°13'0 0.0
2018-Apr-22 21:01N 51°17' E 004°13'0 0.0
2018-Apr-22 20:31N 51°17' E 004°13'0 0.0
2018-Apr-22 20:00N 51°17' E 004°13'0 0.0
2018-Apr-22 19:31N 51°17' E 004°13'0 0.0
2018-Apr-22 19:01N 51°17' E 004°13'0 0.0
2018-Apr-22 18:31N 51°17' E 004°13'0 0.0
2018-Apr-22 18:01N 51°17' E 004°13'0 0.0
2018-Apr-22 17:31N 51°17' E 004°13'0 0.0
2018-Apr-22 17:00N 51°17' E 004°13'0 0.0
2018-Apr-22 16:30N 51°17' E 004°13'0 0.0
2018-Apr-22 16:00N 51°17' E 004°13'0 0.0
2018-Apr-22 15:30N 51°17' E 004°13'0 0.0
2018-Apr-22 15:00N 51°17' E 004°13'0 0.0
2018-Apr-22 14:30N 51°17' E 004°13'0 0.0
2018-Apr-22 14:00N 51°17' E 004°13'0 0.0
2018-Apr-22 13:30N 51°17' E 004°13'0 0.0
2018-Apr-22 13:00N 51°17' E 004°13'0 0.0
2018-Apr-22 12:30N 51°17' E 004°13'0 0.0
2018-Apr-22 12:00N 51°17' E 004°13'0 0.0
2018-Apr-22 11:30N 51°17' E 004°13'0 0.0
2018-Apr-22 11:00N 51°17' E 004°13'0 0.0
2018-Apr-22 10:30N 51°17' E 004°13'0 0.0
2018-Apr-22 10:00N 51°17' E 004°13'0 0.0
2018-Apr-22 09:30N 51°17' E 004°13'0 0.0
2018-Apr-22 09:00N 51°17' E 004°13'0 0.0
2018-Apr-22 08:30N 51°17' E 004°13'0 0.0
2018-Apr-22 08:00N 51°17' E 004°13'0 0.0
2018-Apr-22 07:30N 51°17' E 004°13'0 0.0
2018-Apr-22 07:00N 51°17' E 004°13'0 0.0
2018-Apr-22 06:30N 51°17' E 004°13'0 0.0
2018-Apr-22 06:00N 51°17' E 004°13'0 0.0
2018-Apr-22 05:30N 51°17' E 004°13'0 0.0
2018-Apr-22 05:00N 51°17' E 004°13'0 0.0
2018-Apr-22 04:30N 51°17' E 004°13'0 0.0
2018-Apr-22 04:00N 51°17' E 004°13'0 0.0
2018-Apr-22 03:30N 51°17' E 004°13'0 0.0
2018-Apr-22 03:00N 51°17' E 004°13'0 0.0
2018-Apr-22 02:30N 51°17' E 004°13'0 0.0
2018-Apr-22 02:00N 51°17' E 004°13'0 0.0
2018-Apr-22 01:30N 51°17' E 004°13'0 0.0
2018-Apr-22 01:00N 51°17' E 004°13'0 0.0
2018-Apr-22 00:30N 51°17' E 004°13'0 0.0
2018-Apr-22 00:00N 51°17' E 004°13'0 0.0
2018-Apr-21 23:30N 51°17' E 004°13'0 0.0
2018-Apr-21 23:00N 51°17' E 004°13'0 0.0
2018-Apr-21 22:30N 51°17' E 004°13'0 0.0
2018-Apr-21 22:00N 51°17' E 004°13'0 0.0
2018-Apr-21 21:30N 51°17' E 004°13'0 0.0
2018-Apr-21 21:00N 51°17' E 004°13'0 0.0
2018-Apr-21 20:31N 51°17' E 004°13'0 0.0
2018-Apr-21 20:00N 51°17' E 004°13'0 0.0
2018-Apr-21 19:30N 51°17' E 004°13'0 0.0
2018-Apr-21 19:01N 51°17' E 004°13'0 0.0
2018-Apr-21 18:30N 51°17' E 004°13'0 0.0
2018-Apr-21 18:01N 51°17' E 004°13'0 0.0
2018-Apr-21 17:31N 51°17' E 004°13'0 0.0
2018-Apr-21 17:01N 51°17' E 004°13'0 0.0
2018-Apr-21 16:31N 51°17' E 004°13'0 0.0
2018-Apr-21 16:00N 51°17' E 004°13'0 0.0
2018-Apr-21 15:30N 51°17' E 004°13'0 0.0
2018-Apr-21 15:01N 51°17' E 004°13'0 0.0
2018-Apr-21 14:31N 51°17' E 004°13'0 0.0
2018-Apr-21 14:01N 51°17' E 004°13'0 0.0
2018-Apr-21 13:30N 51°17' E 004°13'0 0.0
2018-Apr-21 13:00N 51°17' E 004°13'0 0.0
2018-Apr-21 12:31N 51°17' E 004°13'0 0.0
2018-Apr-21 12:01N 51°17' E 004°13'0 0.0
2018-Apr-21 11:30N 51°17' E 004°13'0 0.0
2018-Apr-21 11:01N 51°17' E 004°13'0 0.0
2018-Apr-21 10:31N 51°17' E 004°13'0 0.0
2018-Apr-21 10:01N 51°17' E 004°13'0 0.0
2018-Apr-21 09:31N 51°17' E 004°13'0 0.0
2018-Apr-21 09:01N 51°17' E 004°13'0 0.0
2018-Apr-21 08:30N 51°17' E 004°13'0 0.0
2018-Apr-21 08:00N 51°17' E 004°13'0 0.0
2018-Apr-21 07:31N 51°17' E 004°13'0 0.0
2018-Apr-21 07:01N 51°17' E 004°13'0 0.0
2018-Apr-21 06:30N 51°17' E 004°13'0 0.0
2018-Apr-21 06:01N 51°17' E 004°13'0 0.0
2018-Apr-21 05:30N 51°17' E 004°13'0 0.0
2018-Apr-21 05:01N 51°17' E 004°13'0 0.0
2018-Apr-21 04:31N 51°17' E 004°13'0 0.0
2018-Apr-21 04:00N 51°17' E 004°13'0 0.0
2018-Apr-21 03:31N 51°17' E 004°13'0 0.0
2018-Apr-21 03:01N 51°17' E 004°13'0 0.0
2018-Apr-21 02:30N 51°17' E 004°13'0 0.0
2018-Apr-21 02:01N 51°17' E 004°13'0 0.0
2018-Apr-21 01:31N 51°17' E 004°13'0 0.0
2018-Apr-21 01:01N 51°17' E 004°13'0 0.0
2018-Apr-21 00:31N 51°17' E 004°13'0 0.0
2018-Apr-21 00:01N 51°17' E 004°13'0 0.0
2018-Apr-20 23:31N 51°17' E 004°13'0 0.0
2018-Apr-20 23:01N 51°17' E 004°13'0 0.0
2018-Apr-20 22:31N 51°17' E 004°13'0 0.0
2018-Apr-20 22:00N 51°17' E 004°13'0 0.0
2018-Apr-20 21:31N 51°17' E 004°13'0 0.0
2018-Apr-20 21:01N 51°17' E 004°13'0 0.0
2018-Apr-20 20:30N 51°17' E 004°13'0 0.0
2018-Apr-20 20:01N 51°17' E 004°13'0 0.0
2018-Apr-20 19:31N 51°17' E 004°13'0 0.0
2018-Apr-20 19:01N 51°17' E 004°13'0 0.0
2018-Apr-20 18:30N 51°17' E 004°13'0 0.0
2018-Apr-20 18:01N 51°17' E 004°13'0 0.0
2018-Apr-20 17:30N 51°17' E 004°13'0 0.0
2018-Apr-20 17:01N 51°17' E 004°13'0 0.0
2018-Apr-20 16:30N 51°17' E 004°13'0 0.0
2018-Apr-20 16:01N 51°17' E 004°13'0 0.0
2018-Apr-20 15:31N 51°17' E 004°13'0 0.0
2018-Apr-20 15:01N 51°17' E 004°13'0 0.0
2018-Apr-20 14:30N 51°17' E 004°13'0 0.0
2018-Apr-20 14:00N 51°17' E 004°13'0 0.0
2018-Apr-20 13:30N 51°17' E 004°13'0 0.0
2018-Apr-20 13:00N 51°17' E 004°13'0 0.0
2018-Apr-20 12:30N 51°17' E 004°13'0 0.0
2018-Apr-20 12:01N 51°17' E 004°13'0 0.0
2018-Apr-20 11:31N 51°17' E 004°13'0 0.0
2018-Apr-20 11:00N 51°17' E 004°13'0 0.0
2018-Apr-20 10:30N 51°17' E 004°13'0 0.0
2018-Apr-20 10:01N 51°17' E 004°13'0 0.0
2018-Apr-20 09:31N 51°17' E 004°13'0 0.0
2018-Apr-20 09:01N 51°17' E 004°13'0 0.0
2018-Apr-20 08:31N 51°17' E 004°13'0 0.0
2018-Apr-20 08:01N 51°17' E 004°13'0 0.0
2018-Apr-20 07:31N 51°17' E 004°13'0 0.0
2018-Apr-20 07:01N 51°17' E 004°13'0 0.0
2018-Apr-20 06:31N 51°17' E 004°13'0 0.0
2018-Apr-20 06:01N 51°17' E 004°13'0 0.0
2018-Apr-20 05:30N 51°17' E 004°13'0 0.0
2018-Apr-20 05:00N 51°17' E 004°13'0 0.0
2018-Apr-20 04:30N 51°17' E 004°13'0 0.0
2018-Apr-20 04:01N 51°17' E 004°13'0 0.0
2018-Apr-20 03:30N 51°17' E 004°13'0 0.0
2018-Apr-20 03:01N 51°17' E 004°13'0 0.0
2018-Apr-20 02:30N 51°17' E 004°13'0 0.0
2018-Apr-20 02:00N 51°17' E 004°13'0 0.0
2018-Apr-20 01:30N 51°17' E 004°13'0 0.0
2018-Apr-20 01:01N 51°17' E 004°13'0 0.0
2018-Apr-20 00:30N 51°17' E 004°13'0 0.0
2018-Apr-20 00:00N 51°17' E 004°13'0 0.0
2018-Apr-19 23:30N 51°17' E 004°13'0 0.0
2018-Apr-19 23:00N 51°17' E 004°13'0 0.0
2018-Apr-19 22:30N 51°17' E 004°13'0 0.0
2018-Apr-19 22:00N 51°17' E 004°13'0 0.0
2018-Apr-19 21:30N 51°17' E 004°13'0 0.0
2018-Apr-19 21:00N 51°17' E 004°13'0 0.0
2018-Apr-19 20:30N 51°17' E 004°13'0 0.0
2018-Apr-19 20:00N 51°17' E 004°13'0 0.0
2018-Apr-19 19:30N 51°17' E 004°13'0 0.0
2018-Apr-19 19:00N 51°17' E 004°13'0 0.0
2018-Apr-19 18:30N 51°17' E 004°13'0 0.0
2018-Apr-19 18:00N 51°17' E 004°13'0 0.0
2018-Apr-19 17:30N 51°17' E 004°13'0 0.0
2018-Apr-19 17:00N 51°17' E 004°13'0 0.0
2018-Apr-19 16:30N 51°17' E 004°13'0 0.0
2018-Apr-19 16:00N 51°17' E 004°13'0 0.0
2018-Apr-19 15:31N 51°17' E 004°13'0 0.0
2018-Apr-19 15:00N 51°17' E 004°13'0 0.0
2018-Apr-19 14:30N 51°17' E 004°13'0 0.0
2018-Apr-19 14:00N 51°17' E 004°13'0 0.0
2018-Apr-19 13:30N 51°17' E 004°13'0 0.0
2018-Apr-19 13:00N 51°17' E 004°13'0 0.0
2018-Apr-19 12:30N 51°17' E 004°13'0 0.0
2018-Apr-19 12:00N 51°17' E 004°13'0 0.0
2018-Apr-19 11:30N 51°17' E 004°13'0 0.0
2018-Apr-19 11:00N 51°17' E 004°13'0 0.0
2018-Apr-19 10:30N 51°17' E 004°13'0 0.0
2018-Apr-19 10:00N 51°17' E 004°13'0 0.0
2018-Apr-19 09:30N 51°17' E 004°13'0 0.0
2018-Apr-19 09:01N 51°17' E 004°13'0 0.0
2018-Apr-19 08:30N 51°17' E 004°13'0 0.0
2018-Apr-19 08:00N 51°17' E 004°13'0 0.0
2018-Apr-19 07:30N 51°17' E 004°13'0 0.0
2018-Apr-19 07:00N 51°17' E 004°13'0 0.0
2018-Apr-19 06:30N 51°17' E 004°13'0 0.0
2018-Apr-19 06:00N 51°17' E 004°13'0 0.0
2018-Apr-19 05:30N 51°17' E 004°13'0 0.0
2018-Apr-19 05:00N 51°17' E 004°13'0 0.0
2018-Apr-19 04:30N 51°17' E 004°13'0 0.0
2018-Apr-19 04:00N 51°17' E 004°13'0 0.0
2018-Apr-19 03:30N 51°17' E 004°13'0 0.0
2018-Apr-19 03:00N 51°17' E 004°13'0 0.0
2018-Apr-19 02:30N 51°17' E 004°13'0 0.0
2018-Apr-19 02:00N 51°17' E 004°13'0 0.0
2018-Apr-19 01:30N 51°17' E 004°13'0 0.0
2018-Apr-19 01:00N 51°17' E 004°13'0 0.0
2018-Apr-19 00:30N 51°17' E 004°13'0 0.0
2018-Apr-19 00:00N 51°17' E 004°13'0 0.0
2018-Apr-18 23:30N 51°17' E 004°13'0 0.0
2018-Apr-18 23:00N 51°17' E 004°13'0 0.0
2018-Apr-18 22:30N 51°17' E 004°13'0 0.0
2018-Apr-18 22:00N 51°17' E 004°13'0 0.0
2018-Apr-18 21:30N 51°17' E 004°13'0 0.0
2018-Apr-18 21:00N 51°17' E 004°13'0 0.0
2018-Apr-18 20:30N 51°17' E 004°13'0 0.0
2018-Apr-18 20:00N 51°17' E 004°13'0 0.0
2018-Apr-18 19:30N 51°17' E 004°13'0 0.0
2018-Apr-18 19:00N 51°17' E 004°13'0 0.0
2018-Apr-18 18:30N 51°17' E 004°13'0 0.0
2018-Apr-18 18:00N 51°17' E 004°13'0 0.0
2018-Apr-18 17:30N 51°17' E 004°13'0 0.0
2018-Apr-18 17:00N 51°17' E 004°13'0 0.0
2018-Apr-18 16:30N 51°17' E 004°13'0 0.0
2018-Apr-18 16:00N 51°17' E 004°13'0 0.0
2018-Apr-18 15:30N 51°17' E 004°13'0 0.0
2018-Apr-18 15:00N 51°17' E 004°13'0 0.0
2018-Apr-18 14:30N 51°17' E 004°13'0 0.0
2018-Apr-18 14:00N 51°17' E 004°13'0 0.0
2018-Apr-18 13:30N 51°17' E 004°13'0 0.0
2018-Apr-18 13:00N 51°17' E 004°13'1 2.2
2018-Apr-18 12:30N 51°17' E 004°15'0 0.0
2018-Apr-18 12:00N 51°17' E 004°15'0 0.8
2018-Apr-18 11:30N 51°17' E 004°15'3 6.5
2018-Apr-18 11:00N 51°20' E 004°16'510.1
2018-Apr-18 10:30N 51°23' E 004°09'613.1
2018-Apr-18 10:00N 51°26' E 004°00'713.7
2018-Apr-18 09:29N 51°21' E 003°52'613.1
2018-Apr-18 09:01N 51°23' E 003°43'5 9.6
2018-Apr-18 08:31N 51°26' E 003°36'5 9.2
2018-Apr-18 08:00N 51°25' E 003°29'715.0
2018-Apr-18 07:31N 51°24' E 003°17'815.0
2018-Apr-18 07:01N 51°24' E 003°05'815.6
2018-Apr-18 06:30N 51°22' E 002°53'712.9
2018-Apr-18 06:00N 51°22' E 002°42'611.3
2018-Apr-18 05:30N 51°22' E 002°34'612.4
2018-Apr-18 04:59N 51°20' E 002°24'612.5
2018-Apr-18 04:30N 51°17' E 002°15'612.5
2018-Apr-18 04:01N 51°14' E 002°07'612.5
2018-Apr-18 03:31N 51°11' E 001°58'612.3
2018-Apr-18 03:01N 51°08' E 001°50'713.1
2018-Apr-18 02:31N 51°03' E 001°42'1019.0
2018-Apr-18 02:00N 50°56' E 001°32'1019.4
2018-Apr-18 01:30N 50°48' E 001°24'917.9
2018-Apr-18 01:01N 50°40' E 001°18'917.2
2018-Apr-18 00:30N 50°35' E 001°07'816.6
2018-Apr-18 00:00N 50°30' E 000°56'816.8
2018-Apr-17 23:30N 50°28' E 000°43'1117.5
2018-Apr-17 22:51N 50°24' E 000°26'618.0
2018-Apr-17 22:30N 50°22' E 000°17'918.4
2018-Apr-17 22:01N 50°20' E 000°03'1118.9
2018-Apr-17 21:26N 50°17' W 000°13'1520.0
2018-Apr-17 20:42N 50°13' W 000°35'520.2
2018-Apr-17 20:28N 50°12' W 000°42'1220.8
2018-Apr-17 19:53N 50°09' W 001°01'820.5
2018-Apr-17 19:31N 50°07' W 001°12'1121.2
2018-Apr-17 19:00N 50°05' W 001°29'1020.5
2018-Apr-17 18:30N 50°01' W 001°44'1019.5
2018-Apr-17 18:01N 49°59' W 001°58'918.5
2018-Apr-17 17:30N 49°56' W 002°12'1717.6
2018-Apr-17 16:34N 49°52' W 002°37'617.3
2018-Apr-17 16:13N 49°50' W 002°46'417.5
2018-Apr-17 16:00N 49°49' W 002°52'  

Dump ship's entire track history